createdAt,value
2018-11-22T12:16:05.289Z,100955.31
2018-11-22T12:17:09.276Z,100952.56
2018-11-22T12:18:12.760Z,100954.74
2018-11-22T12:19:16.754Z,100947.62
2018-11-22T12:20:21.242Z,100953.13
2018-11-22T12:21:24.653Z,100948.25
2018-11-22T12:22:28.097Z,100947.44
2018-11-22T12:23:31.721Z,100949.67
2018-11-22T12:24:35.259Z,100956.80
2018-11-22T12:25:38.696Z,100941.17
2018-11-22T12:26:43.015Z,100947.80
2018-11-22T12:27:47.839Z,100940.74
2018-11-22T12:28:51.466Z,100949.55
2018-11-22T12:29:54.887Z,100944.80
2018-11-22T12:31:06.088Z,100948.86
2018-11-22T12:32:34.115Z,100948.75
2018-11-22T12:33:38.608Z,100949.00
2018-11-22T12:34:48.320Z,100945.97
2018-11-22T12:35:57.758Z,100945.68
2018-11-22T12:37:07.863Z,100945.92
2018-11-22T12:38:17.395Z,100938.48
2018-11-22T12:39:22.016Z,100935.98
2018-11-22T12:40:26.531Z,100938.48
2018-11-22T12:41:31.448Z,100938.98
2018-11-22T12:42:36.016Z,100943.95
2018-11-22T12:43:40.733Z,100941.20
2018-11-22T12:44:45.008Z,100940.91
2018-11-22T12:45:49.874Z,100938.55
2018-11-22T12:46:54.488Z,100942.92
2018-11-22T12:47:59.548Z,100938.03
2018-11-22T12:49:04.358Z,100939.97
2018-11-22T12:50:10.586Z,100945.61
2018-11-22T12:51:15.875Z,100948.68
2018-11-22T12:52:20.210Z,100943.00
2018-11-22T12:53:24.772Z,100942.05
2018-11-22T12:54:29.569Z,100942.92
2018-11-22T12:55:34.255Z,100949.31
2018-11-22T12:56:39.163Z,100946.63
2018-11-22T12:57:44.209Z,100942.33
2018-11-22T12:58:48.926Z,100939.05
2018-11-22T12:59:53.532Z,100942.67
2018-11-22T13:00:58.967Z,100936.68
2018-11-22T13:02:03.706Z,100935.94
2018-11-22T13:03:07.840Z,100936.81
2018-11-22T13:04:12.450Z,100934.69
2018-11-22T13:05:18.266Z,100937.48
2018-11-22T13:06:23.225Z,100936.73
2018-11-22T13:07:27.418Z,100933.48
2018-11-22T13:08:32.163Z,100934.86
2018-11-22T13:09:36.644Z,100931.80
2018-11-22T13:10:41.419Z,100938.05
2018-11-22T13:11:47.746Z,100932.13
2018-11-22T13:12:50.925Z,100932.80
2018-11-22T13:13:55.824Z,100925.82
2018-11-22T13:15:00.273Z,100932.70
2018-11-22T13:16:05.005Z,100936.75
2018-11-22T13:17:09.880Z,100934.50
2018-11-22T13:18:14.610Z,100934.92
2018-11-22T13:19:20.014Z,100935.42
2018-11-22T13:20:24.477Z,100926.29
2018-11-22T13:21:28.771Z,100929.29
2018-11-22T13:22:33.121Z,100926.53
2018-11-22T13:23:37.662Z,100929.36
2018-11-22T13:24:41.990Z,100927.17
2018-11-22T13:25:46.730Z,100927.80
2018-11-22T13:26:51.192Z,100922.94
2018-11-22T13:27:55.715Z,100926.81
2018-11-22T13:28:59.846Z,100923.56
2018-11-22T13:30:04.509Z,100924.70
2018-11-22T13:31:10.002Z,100925.30
2018-11-22T13:32:21.246Z,100922.30
2018-11-22T13:33:19.527Z,100920.43
2018-11-22T13:34:23.821Z,100919.13
2018-11-22T13:35:28.388Z,100919.44
2018-11-22T13:36:33.117Z,100918.70
2018-11-22T13:37:37.675Z,100918.20
2018-11-22T13:38:42.246Z,100917.67
2018-11-22T13:39:46.882Z,100917.98
2018-11-22T13:40:51.538Z,100920.48
2018-11-22T13:41:56.155Z,100918.37
2018-11-22T13:43:00.389Z,100920.05
2018-11-22T13:44:04.777Z,100917.12
2018-11-22T13:45:11.672Z,100914.13
2018-11-22T13:46:16.360Z,100922.69
2018-11-22T13:47:21.137Z,100922.72
2018-11-22T13:48:25.639Z,100923.91
2018-11-22T13:49:30.239Z,100919.29
2018-11-22T13:50:41.713Z,100921.79
2018-11-22T13:51:40.700Z,100928.03
2018-11-22T13:52:46.839Z,100922.97
2018-11-22T13:53:51.459Z,100923.37
2018-11-22T13:54:55.922Z,100920.55
2018-11-22T13:56:00.635Z,100923.45
2018-11-22T13:57:05.416Z,100922.56
2018-11-22T13:58:10.014Z,100921.31
2018-11-22T13:59:15.614Z,100925.05
2018-11-22T14:00:28.306Z,100923.92
2018-11-22T14:01:32.846Z,100923.07
2018-11-22T14:02:37.430Z,100922.94
2018-11-22T14:03:41.926Z,100923.25
2018-11-22T14:04:46.596Z,100922.94
2018-11-22T14:05:51.306Z,100926.25
2018-11-22T14:06:55.942Z,100923.56
2018-11-22T14:08:00.739Z,100925.30
2018-11-22T14:09:07.310Z,100928.05
2018-11-22T14:10:14.196Z,100926.49
2018-11-22T14:11:18.797Z,100922.19
2018-11-22T14:12:23.670Z,100917.32
2018-11-22T14:13:28.255Z,100915.70
2018-11-22T14:14:32.817Z,100918.45
2018-11-22T14:15:37.401Z,100914.57
2018-11-22T14:16:41.832Z,100912.81
2018-11-22T14:17:47.002Z,100917.36
2018-11-22T14:18:52.704Z,100909.82
2018-11-22T14:19:57.400Z,100912.30
2018-11-22T14:21:01.839Z,100902.91
2018-11-22T14:22:06.686Z,100905.43
2018-11-22T14:23:11.347Z,100898.22
2018-11-22T14:24:16.241Z,100905.92
2018-11-22T14:25:20.765Z,100896.59
2018-11-22T14:26:24.711Z,100888.49
2018-11-22T14:27:28.425Z,100894.61
2018-11-22T14:28:31.860Z,100897.28
2018-11-22T14:29:35.527Z,100892.27
2018-11-22T14:30:38.949Z,100896.88
2018-11-22T14:31:42.387Z,100896.80
2018-11-22T14:32:46.623Z,100891.30
2018-11-22T14:33:50.039Z,100900.45
2018-11-22T14:34:56.535Z,100904.74
2018-11-22T14:35:57.142Z,100899.75
2018-11-22T14:37:01.222Z,100906.32
2018-11-22T14:38:04.991Z,100908.37
2018-11-22T14:39:08.675Z,100903.68
2018-11-22T14:40:14.514Z,100906.03
2018-11-22T14:41:18.367Z,100900.92
2018-11-22T14:43:24.740Z,100909.57
2018-11-22T14:44:28.179Z,100906.25
2018-11-22T14:45:32.364Z,100909.57
2018-11-22T14:46:35.910Z,100909.52
2018-11-22T14:47:39.627Z,100905.63
2018-11-22T14:48:43.043Z,100903.44
2018-11-22T14:49:46.570Z,100905.20
2018-11-22T14:51:01.550Z,100906.25
2018-11-22T14:52:05.302Z,100906.20
2018-11-22T14:53:12.720Z,100901.81
2018-11-22T14:54:16.558Z,100906.34
2018-11-22T14:55:20.257Z,100900.11
2018-11-22T14:56:23.693Z,100908.15
2018-11-22T14:57:27.156Z,100900.27
2018-11-22T14:58:30.634Z,100903.51
2018-11-22T14:59:34.422Z,100906.03
2018-11-22T15:00:37.894Z,100900.42
2018-11-22T15:01:41.337Z,100906.92
2018-11-22T15:02:47.072Z,100905.94
2018-11-22T15:03:50.764Z,100907.41
2018-11-22T15:04:54.207Z,100904.16
2018-11-22T15:05:57.634Z,100899.70
2018-11-22T15:07:01.101Z,100903.36
2018-11-22T15:08:04.559Z,100904.31
2018-11-22T15:09:09.496Z,100901.75
2018-11-22T15:10:14.234Z,100898.17
2018-11-22T15:11:17.926Z,100897.25
2018-11-22T15:12:21.447Z,100888.65
2018-11-22T15:13:24.850Z,100899.44
2018-11-22T15:14:28.281Z,100893.92
2018-11-22T15:15:31.831Z,100894.88
2018-11-22T15:16:35.978Z,100893.02
2018-11-22T15:17:39.927Z,100891.41
2018-11-22T15:18:43.374Z,100891.55
2018-11-22T15:19:46.838Z,100893.02
2018-11-22T15:20:50.278Z,100893.77
2018-11-22T15:21:53.697Z,100890.20
2018-11-22T15:22:57.116Z,100893.11
2018-11-22T15:24:00.696Z,100890.78
2018-11-22T15:25:04.286Z,100889.45
2018-11-22T15:26:07.761Z,100892.88
2018-11-22T15:27:11.202Z,100886.70
2018-11-22T15:28:15.633Z,100886.37
2018-11-22T15:29:19.218Z,100899.14
2018-11-22T15:30:27.086Z,100893.77
2018-11-22T15:31:30.840Z,100893.11
2018-11-22T15:32:34.269Z,100895.05
2018-11-22T15:33:37.824Z,100895.59
2018-11-22T15:34:41.254Z,100897.30
2018-11-22T15:35:45.055Z,100897.39
2018-11-22T15:36:48.525Z,100898.05
2018-11-22T15:37:52.416Z,100901.95
2018-11-22T15:38:56.021Z,100896.86
2018-11-22T15:39:59.595Z,100897.58
2018-11-22T15:41:03.038Z,100893.44
2018-11-22T15:42:06.470Z,100902.67
2018-11-22T15:43:09.908Z,100899.01
2018-11-22T15:44:13.453Z,100900.15
2018-11-22T15:45:18.970Z,100902.75
2018-11-22T15:46:22.492Z,100901.95
2018-11-22T15:47:25.910Z,100901.20
2018-11-22T15:48:29.309Z,100903.39
2018-11-22T15:49:32.783Z,100905.58
2018-11-22T15:50:36.207Z,100899.48
2018-11-22T15:51:39.631Z,100901.05
2018-11-22T15:52:43.577Z,100901.95
2018-11-22T15:53:47.155Z,100905.38
2018-11-22T15:54:50.615Z,100904.56
2018-11-22T15:55:54.046Z,100905.61
2018-11-22T15:56:57.482Z,100903.00
2018-11-22T15:58:01.350Z,100907.86
2018-11-22T15:59:04.794Z,100907.71
2018-11-22T16:00:16.052Z,100910.95
2018-11-22T16:01:19.728Z,100909.33
2018-11-22T16:02:23.146Z,100912.81
2018-11-22T16:03:26.576Z,100915.66
2018-11-22T16:04:30.014Z,100908.37
2018-11-22T16:05:33.776Z,100912.52
2018-11-22T16:06:37.248Z,100915.13
2018-11-22T16:07:41.175Z,100919.27
2018-11-22T16:08:44.823Z,100925.35
2018-11-22T16:09:48.407Z,100925.92
2018-11-22T16:10:51.999Z,100927.92
2018-11-22T16:11:55.756Z,100932.55
2018-11-22T16:13:01.005Z,100931.41
2018-11-22T16:14:05.378Z,100924.69
2018-11-22T16:15:15.114Z,100933.92
2018-11-22T16:16:18.759Z,100930.69
2018-11-22T16:17:22.324Z,100929.97
2018-11-22T16:18:25.707Z,100927.12
2018-11-22T16:19:29.175Z,100932.73
2018-11-22T16:20:32.694Z,100932.16
2018-11-22T16:21:36.245Z,100931.34
2018-11-22T16:22:40.167Z,100933.86
2018-11-22T16:23:43.883Z,100928.26
2018-11-22T16:24:47.848Z,100929.30
2018-11-22T16:25:51.285Z,100928.64
2018-11-22T16:26:54.742Z,100930.17
2018-11-22T16:27:58.166Z,100928.07
2018-11-22T16:29:01.637Z,100929.03
2018-11-22T16:30:07.261Z,100923.27
2018-11-22T16:31:10.713Z,100927.22
2018-11-22T16:32:14.446Z,100925.17
2018-11-22T16:33:18.114Z,100918.70
2018-11-22T16:34:22.303Z,100929.98
2018-11-22T16:35:33.201Z,100933.31
2018-11-22T16:36:30.201Z,100929.27
2018-11-22T16:37:33.613Z,100931.06
2018-11-22T16:38:37.044Z,100934.88
2018-11-22T16:39:40.484Z,100935.54
2018-11-22T16:40:45.489Z,100932.03
2018-11-22T16:41:49.016Z,100934.48
2018-11-22T16:42:53.242Z,100935.20
2018-11-22T16:43:59.623Z,100938.63
2018-11-22T16:45:00.201Z,100939.26
2018-11-22T16:46:03.646Z,100936.83
2018-11-22T16:47:07.051Z,100928.17
2018-11-22T16:48:12.048Z,100937.11
2018-11-22T16:49:15.481Z,100935.58
2018-11-22T16:50:22.900Z,100928.97
2018-11-22T16:51:26.358Z,100935.78
2018-11-22T16:52:29.780Z,100934.25
2018-11-22T16:53:33.164Z,100936.38
2018-11-22T16:54:36.596Z,100938.97
2018-11-22T16:55:40.024Z,100944.30
2018-11-22T16:56:43.537Z,100946.73
2018-11-22T16:57:48.373Z,100945.49
2018-11-22T16:58:51.833Z,100945.30
2018-11-22T16:59:55.223Z,100945.30
2018-11-22T17:00:58.674Z,100948.01
2018-11-22T17:02:02.100Z,100953.58
2018-11-22T17:03:10.332Z,100948.72
2018-11-22T17:04:13.821Z,100954.09
2018-11-22T17:05:17.538Z,100939.88
2018-11-22T17:06:21.036Z,100946.78
2018-11-22T17:07:24.482Z,100951.58
2018-11-22T17:08:27.901Z,100952.01
2018-11-22T17:09:31.444Z,100957.95
2018-11-22T17:10:36.369Z,100951.11
2018-11-22T17:11:39.795Z,100954.53
2018-11-22T17:12:44.211Z,100954.77
2018-11-22T17:13:47.783Z,100961.19
2018-11-22T17:14:51.196Z,100957.19
2018-11-22T17:15:54.597Z,100961.39
2018-11-22T17:16:58.030Z,100967.24
2018-11-22T17:18:01.879Z,100962.20
2018-11-22T17:19:05.381Z,100955.96
2018-11-22T17:20:11.090Z,100953.68
2018-11-22T17:21:14.498Z,100955.81
2018-11-22T17:22:17.958Z,100948.25
2018-11-22T17:23:21.398Z,100956.77
2018-11-22T17:24:24.795Z,100956.44
2018-11-22T17:25:29.690Z,100958.14
2018-11-22T17:26:33.150Z,100959.86
2018-11-22T17:27:36.641Z,100953.86
2018-11-22T17:28:40.156Z,100962.44
2018-11-22T17:29:43.615Z,100958.39
2018-11-22T17:30:47.109Z,100956.20
2018-11-22T17:31:50.957Z,100959.30
2018-11-22T17:32:56.674Z,100961.81
2018-11-22T17:34:00.381Z,100954.62
2018-11-22T17:35:04.355Z,100966.70
2018-11-22T17:36:07.931Z,100962.39
2018-11-22T17:37:12.214Z,100969.47
2018-11-22T17:38:16.430Z,100960.23
2018-11-22T17:39:21.342Z,100969.41
2018-11-22T17:40:29.121Z,100970.60
2018-11-22T17:41:32.596Z,100960.70
2018-11-22T17:42:36.053Z,100964.84
2018-11-22T17:43:39.503Z,100967.20
2018-11-22T17:44:43.917Z,100966.06
2018-11-22T17:45:49.001Z,100963.45
2018-11-22T17:46:52.430Z,100967.44
2018-11-22T17:47:55.897Z,100976.83
2018-11-22T17:48:59.361Z,100968.27
2018-11-22T17:50:02.751Z,100972.31
2018-11-22T17:51:06.295Z,100969.70
2018-11-22T17:52:09.742Z,100970.81
2018-11-22T17:53:14.196Z,100970.24
2018-11-22T17:54:17.893Z,100974.47
2018-11-22T17:55:22.867Z,100977.70
2018-11-22T17:56:26.278Z,100978.42
2018-11-22T17:57:29.709Z,100972.33
2018-11-22T17:58:33.146Z,100973.95
2018-11-22T17:59:36.941Z,100972.91
2018-11-22T18:00:42.966Z,100978.19
2018-11-22T18:01:46.421Z,100974.14
2018-11-22T18:02:51.270Z,100974.47
2018-11-22T18:03:55.177Z,100980.14
2018-11-22T18:04:58.622Z,100972.77
2018-11-22T18:06:02.095Z,100977.33
2018-11-22T18:07:05.980Z,100975.22
2018-11-22T18:08:09.422Z,100979.22
2018-11-22T18:09:12.921Z,100985.36
2018-11-22T18:10:19.036Z,100983.35
2018-11-22T18:11:22.457Z,100978.25
2018-11-22T18:12:25.909Z,100985.30
2018-11-22T18:13:29.415Z,100978.55
2018-11-22T18:14:32.868Z,100980.00
2018-11-22T18:16:08.084Z,100979.85
2018-11-22T18:17:11.476Z,100981.13
2018-11-22T18:18:14.966Z,100980.41
2018-11-22T18:19:18.470Z,100980.49
2018-11-22T18:20:23.184Z,100984.95
2018-11-22T18:21:26.588Z,100978.45
2018-11-22T18:22:30.000Z,100983.23
2018-11-22T18:23:33.448Z,100983.32
2018-11-22T18:24:36.843Z,100984.54
2018-11-22T18:25:40.244Z,100989.33
2018-11-22T18:26:43.715Z,100990.76
2018-11-22T18:27:47.296Z,100983.70
2018-11-22T18:28:50.733Z,100990.36
2018-11-22T18:29:54.179Z,100986.88
2018-11-22T18:30:57.625Z,100988.66
2018-11-22T18:32:01.012Z,100982.90
2018-11-22T18:33:05.890Z,100986.46
2018-11-22T18:34:09.321Z,100988.81
2018-11-22T18:35:13.468Z,100994.27
2018-11-22T18:36:16.927Z,100990.61
2018-11-22T18:37:20.359Z,100990.88
2018-11-22T18:38:23.867Z,100990.56
2018-11-22T18:39:27.268Z,100995.33
2018-11-22T18:40:32.102Z,100993.81
2018-11-22T18:41:37.097Z,100995.13
2018-11-22T18:42:40.548Z,100990.81
2018-11-22T18:43:44.814Z,100997.30
2018-11-22T18:44:48.272Z,101000.45
2018-11-22T18:45:51.882Z,100999.91
2018-11-22T18:46:56.801Z,100994.06
2018-11-22T18:48:01.318Z,100995.69
2018-11-22T18:49:05.162Z,100996.02
2018-11-22T18:50:22.100Z,100995.44
2018-11-22T18:51:25.513Z,100999.34
2018-11-22T18:52:28.926Z,100996.48
2018-11-22T18:53:32.313Z,100994.62
2018-11-22T18:54:35.730Z,100997.48
2018-11-22T18:55:39.144Z,100993.88
2018-11-22T18:56:42.577Z,100998.44
2018-11-22T18:57:46.324Z,101000.96
2018-11-22T18:58:49.789Z,101005.41
2018-11-22T18:59:53.490Z,101005.88
2018-11-22T19:00:57.281Z,100999.41
2018-11-22T19:02:01.000Z,100996.31
2018-11-22T19:03:09.052Z,100999.31
2018-11-22T19:04:12.794Z,101002.37
2018-11-22T19:05:16.888Z,101001.70
2018-11-22T19:06:20.386Z,101000.09
2018-11-22T19:07:24.012Z,101000.33
2018-11-22T19:08:27.575Z,100999.61
2018-11-22T19:09:31.319Z,101003.42
2018-11-22T19:10:36.343Z,101002.04
2018-11-22T19:11:39.921Z,101006.27
2018-11-22T19:12:44.617Z,101005.22
2018-11-22T19:13:48.218Z,101005.94
2018-11-22T19:14:51.812Z,101006.75
2018-11-22T19:15:55.314Z,101001.46
2018-11-22T19:16:58.793Z,101002.98
2018-11-22T19:18:02.428Z,101004.84
2018-11-22T19:19:05.984Z,101011.36
2018-11-22T19:20:12.004Z,101011.12
2018-11-22T19:21:15.448Z,101008.66
2018-11-22T19:22:18.902Z,101014.27
2018-11-22T19:23:22.333Z,101006.89
2018-11-22T19:24:25.740Z,101011.70
2018-11-22T19:25:29.111Z,101007.64
2018-11-22T19:26:32.496Z,101003.59
2018-11-22T19:27:35.988Z,101001.08
2018-11-22T19:28:39.390Z,101006.13
2018-11-22T19:29:43.139Z,101015.69
2018-11-22T19:30:47.967Z,101015.88
2018-11-22T19:31:51.415Z,101016.27
2018-11-22T19:32:55.969Z,101006.39
2018-11-22T19:33:59.406Z,101014.34
2018-11-22T19:35:02.829Z,101016.38
2018-11-22T19:36:07.173Z,101013.95
2018-11-22T19:37:10.609Z,101013.53
2018-11-22T19:38:14.343Z,101010.92
2018-11-22T19:39:18.061Z,101012.22
2018-11-22T19:40:26.025Z,101013.78
2018-11-22T19:41:29.464Z,101004.84
2018-11-22T19:42:32.897Z,101002.31
2018-11-22T19:43:36.333Z,101008.08
2018-11-22T19:44:39.762Z,101011.98
2018-11-22T19:45:44.829Z,101012.22
2018-11-22T19:46:48.326Z,101005.88
2018-11-22T19:47:52.017Z,101006.70
2018-11-22T19:48:55.419Z,101006.55
2018-11-22T19:49:58.857Z,101012.45
2018-11-22T19:51:05.878Z,101016.92
2018-11-22T19:52:05.882Z,101006.72
2018-11-22T19:53:10.930Z,101005.67
2018-11-22T19:54:14.520Z,101012.48
2018-11-22T19:55:19.407Z,101014.25
2018-11-22T19:56:22.870Z,101018.72
2018-11-22T19:57:26.315Z,101010.70
2018-11-22T19:58:29.728Z,101013.22
2018-11-22T19:59:33.167Z,101014.13
2018-11-22T20:00:36.651Z,101014.89
2018-11-22T20:01:40.068Z,101022.54
2018-11-22T20:02:44.194Z,101020.59
2018-11-22T20:03:47.653Z,101020.45
2018-11-22T20:04:51.132Z,101017.09
2018-11-22T20:05:54.714Z,101013.95
2018-11-22T20:06:58.214Z,101018.48
2018-11-22T20:08:03.215Z,101021.64
2018-11-22T20:09:09.021Z,101018.64
2018-11-22T20:10:18.353Z,101019.92
2018-11-22T20:11:21.849Z,101009.87
2018-11-22T20:12:25.307Z,101016.69
2018-11-22T20:13:28.782Z,101012.78
2018-11-22T20:14:32.199Z,101012.55
2018-11-22T20:15:35.819Z,101019.69
2018-11-22T20:16:39.229Z,101021.55
2018-11-22T20:17:43.332Z,101018.72
2018-11-22T20:18:46.813Z,101016.71
2018-11-22T20:19:50.239Z,101019.71
2018-11-22T20:20:53.668Z,101024.80
2018-11-22T20:21:57.113Z,101026.27
2018-11-22T20:23:00.521Z,101028.39
2018-11-22T20:24:03.988Z,101026.30
2018-11-22T20:25:07.463Z,101027.73
2018-11-22T20:26:10.909Z,101028.92
2018-11-22T20:27:14.374Z,101024.06
2018-11-22T20:28:17.829Z,101027.71
2018-11-22T20:29:21.281Z,101028.61
2018-11-22T20:30:26.772Z,101023.48
2018-11-22T20:31:30.383Z,101024.41
2018-11-22T20:32:38.766Z,101029.94
2018-11-22T20:33:37.501Z,101029.43
2018-11-22T20:34:41.001Z,101029.43
2018-11-22T20:35:44.725Z,101023.52
2018-11-22T20:36:48.215Z,101025.62
2018-11-22T20:37:52.227Z,101025.62
2018-11-22T20:38:55.744Z,101023.91
2018-11-22T20:39:59.221Z,101020.91
2018-11-22T20:41:02.681Z,101019.53
2018-11-22T20:42:06.371Z,101020.44
2018-11-22T20:43:10.080Z,101015.81
2018-11-22T20:44:13.550Z,101019.77
2018-11-22T20:45:18.386Z,101016.77
2018-11-22T20:46:21.823Z,101013.53
2018-11-22T20:47:25.272Z,101016.70
2018-11-22T20:48:28.737Z,101016.79
2018-11-22T20:49:32.234Z,101014.03
2018-11-22T20:50:36.185Z,101019.97
2018-11-22T20:51:39.666Z,101015.88
2018-11-22T20:52:43.164Z,101014.56
2018-11-22T20:53:46.602Z,101015.78
2018-11-22T20:54:50.195Z,101017.73
2018-11-22T20:55:53.648Z,101015.39
2018-11-22T20:56:57.088Z,101016.28
2018-11-22T20:58:01.943Z,101016.58
2018-11-22T20:59:05.425Z,101012.77
2018-11-22T21:00:12.752Z,101013.25
2018-11-22T21:01:16.208Z,101014.16
2018-11-22T21:02:19.627Z,101015.12
2018-11-22T21:03:23.031Z,101008.98
2018-11-22T21:04:26.471Z,101012.00
2018-11-22T21:05:30.652Z,101013.28
2018-11-22T21:06:34.453Z,101016.71
2018-11-22T21:07:37.896Z,101019.77
2018-11-22T21:08:48.432Z,101016.95
2018-11-22T21:09:44.832Z,101013.86
2018-11-22T21:10:48.385Z,101016.63
2018-11-22T21:11:51.837Z,101008.10
2018-11-22T21:12:55.277Z,101015.91
2018-11-22T21:13:58.766Z,101018.15
2018-11-22T21:15:02.220Z,101014.42
2018-11-22T21:16:06.134Z,101009.33
2018-11-22T21:17:09.544Z,101011.03
2018-11-22T21:18:13.018Z,101006.41
2018-11-22T21:19:16.492Z,101011.45
2018-11-22T21:20:21.539Z,101010.13
2018-11-22T21:21:25.057Z,101007.66
2018-11-22T21:22:28.511Z,101000.28
2018-11-22T21:23:31.924Z,101006.13
2018-11-22T21:24:35.458Z,101005.08
2018-11-22T21:25:38.978Z,101006.45
2018-11-22T21:26:42.400Z,101006.61
2018-11-22T21:27:46.052Z,101002.95
2018-11-22T21:28:49.480Z,101003.33
2018-11-22T21:29:52.907Z,101005.01
2018-11-22T21:30:56.366Z,101010.86
2018-11-22T21:31:59.843Z,101008.73
2018-11-22T21:33:03.614Z,101009.22
2018-11-22T21:34:07.077Z,101010.02
2018-11-22T21:35:10.632Z,101010.02
2018-11-22T21:36:14.106Z,101004.50
2018-11-22T21:37:17.570Z,101014.73
2018-11-22T21:38:20.994Z,101010.11
2018-11-22T21:39:24.466Z,101011.91
2018-11-22T21:40:28.561Z,101011.19
2018-11-22T21:41:32.080Z,101005.97
2018-11-22T21:42:35.489Z,101005.97
2018-11-22T21:43:38.958Z,101013.77
2018-11-22T21:44:42.463Z,101007.44
2018-11-22T21:45:45.864Z,101007.68
2018-11-22T21:46:49.281Z,101004.05
2018-11-22T21:47:52.694Z,101001.11
2018-11-22T21:48:56.069Z,101010.11
2018-11-22T21:49:59.501Z,101003.03
2018-11-22T21:51:02.988Z,101007.66
2018-11-22T21:52:06.425Z,101012.75
2018-11-22T21:53:09.878Z,101005.70
2018-11-22T21:54:13.327Z,101004.41
2018-11-22T21:55:20.315Z,101002.94
2018-11-22T21:56:23.737Z,101004.31
2018-11-22T21:57:27.161Z,100999.03
2018-11-22T21:58:30.584Z,100999.60
2018-11-22T21:59:34.151Z,101000.84
2018-11-22T22:00:39.388Z,101001.70
2018-11-22T22:01:42.811Z,100999.13
2018-11-22T22:02:52.502Z,101002.55
2018-11-22T22:03:51.389Z,101003.45
2018-11-22T22:04:54.798Z,101008.50
2018-11-22T22:05:58.192Z,101004.02
2018-11-22T22:07:01.602Z,100998.98
2018-11-22T22:08:05.075Z,101002.84
2018-11-22T22:09:09.032Z,101000.03
2018-11-22T22:10:12.557Z,101011.52
2018-11-22T22:11:16.005Z,101009.73
2018-11-22T22:12:19.403Z,101009.45
2018-11-22T22:13:22.872Z,101004.73
2018-11-22T22:14:26.291Z,101005.55
2018-11-22T22:15:31.045Z,101001.98
2018-11-22T22:16:34.493Z,101007.84
2018-11-22T22:17:38.299Z,101007.84
2018-11-22T22:18:41.719Z,101003.31
2018-11-22T22:19:45.271Z,101004.84
2018-11-22T22:20:48.754Z,101001.61
2018-11-22T22:21:52.185Z,101006.08
2018-11-22T22:22:55.622Z,101010.55
2018-11-22T22:23:59.016Z,101005.78
2018-11-22T22:25:02.396Z,101006.03
2018-11-22T22:26:05.934Z,101004.80
2018-11-22T22:27:09.449Z,101002.37
2018-11-22T22:28:12.926Z,101004.47
2018-11-22T22:29:16.866Z,100994.89
2018-11-22T22:30:25.774Z,101001.84
2018-11-22T22:31:29.168Z,100998.36
2018-11-22T22:32:32.680Z,101002.31
2018-11-22T22:33:36.106Z,101003.03
2018-11-22T22:34:39.501Z,101002.84
2018-11-22T22:35:42.929Z,101011.62
2018-11-22T22:36:46.373Z,101005.36
2018-11-22T22:37:49.896Z,101006.98
2018-11-22T22:38:53.419Z,101003.41
2018-11-22T22:39:59.678Z,101007.55
2018-11-22T22:41:00.272Z,101005.94
2018-11-22T22:42:03.932Z,101010.17
2018-11-22T22:43:07.393Z,101002.17
2018-11-22T22:44:10.797Z,100998.98
2018-11-22T22:45:15.317Z,101008.09
2018-11-22T22:46:18.756Z,100999.75
2018-11-22T22:47:22.150Z,101008.61
2018-11-22T22:48:25.650Z,101003.84
2018-11-22T22:49:29.231Z,101008.45
2018-11-22T22:50:33.107Z,100997.32
2018-11-22T22:51:36.509Z,101001.12
2018-11-22T22:52:39.921Z,101003.47
2018-11-22T22:53:43.361Z,101004.12
2018-11-22T22:54:46.790Z,101008.45
2018-11-22T22:55:50.190Z,101003.59
2018-11-22T22:56:53.589Z,101004.55
2018-11-22T22:57:57.000Z,101003.05
2018-11-22T22:59:00.422Z,101005.53
2018-11-22T23:00:03.949Z,101000.58
2018-11-22T23:01:07.495Z,101006.61
2018-11-22T23:02:10.918Z,101004.66
2018-11-22T23:03:14.652Z,101003.68
2018-11-22T23:04:18.188Z,101009.03
2018-11-22T23:05:22.068Z,100999.13
2018-11-22T23:06:25.485Z,101000.36
2018-11-22T23:07:28.867Z,101004.84
2018-11-22T23:08:32.267Z,101000.55
2018-11-22T23:09:35.854Z,100993.32
2018-11-22T23:10:39.358Z,101004.61
2018-11-22T23:11:42.834Z,101007.46
2018-11-22T23:12:46.255Z,101004.22
2018-11-22T23:13:49.632Z,101002.42
2018-11-22T23:14:53.062Z,101006.55
2018-11-22T23:15:56.480Z,101004.41
2018-11-22T23:16:59.920Z,101003.50
2018-11-22T23:18:03.361Z,101000.50
2018-11-22T23:19:06.783Z,101011.90
2018-11-22T23:20:12.986Z,100999.47
2018-11-22T23:21:16.443Z,101003.28
2018-11-22T23:22:19.858Z,100997.99
2018-11-22T23:23:23.268Z,101004.33
2018-11-22T23:24:26.647Z,101003.52
2018-11-22T23:25:30.618Z,101002.47
2018-11-22T23:26:34.055Z,101002.13
2018-11-22T23:27:37.818Z,100999.77
2018-11-22T23:28:41.233Z,100997.41
2018-11-22T23:29:44.639Z,101000.27
2018-11-22T23:30:48.091Z,100998.17
2018-11-22T23:31:51.734Z,100998.93
2018-11-22T23:32:57.466Z,100993.47
2018-11-22T23:34:00.862Z,100993.89
2018-11-22T23:35:04.868Z,100993.98
2018-11-22T23:36:08.316Z,100992.84
2018-11-22T23:37:11.780Z,100991.61
2018-11-22T23:38:15.203Z,100991.85
2018-11-22T23:39:18.641Z,100998.31
2018-11-22T23:40:24.295Z,100995.45
2018-11-22T23:41:27.710Z,100992.87
2018-11-22T23:42:31.184Z,100994.25
2018-11-22T23:43:34.592Z,100992.23
2018-11-22T23:44:38.087Z,100993.04
2018-11-22T23:45:41.668Z,100989.47
2018-11-22T23:46:45.119Z,100979.56
2018-11-22T23:47:49.431Z,100984.08
2018-11-22T23:48:52.865Z,100982.69
2018-11-22T23:49:56.265Z,100979.12
2018-11-22T23:50:59.696Z,100981.41
2018-11-22T23:52:03.099Z,100977.13
2018-11-22T23:53:06.519Z,100975.45
2018-11-22T23:54:09.970Z,100976.27
2018-11-22T23:55:13.389Z,100978.28
2018-11-22T23:56:17.139Z,100984.13
2018-11-22T23:57:20.794Z,100979.28
2018-11-22T23:58:24.276Z,100976.47
2018-11-22T23:59:27.639Z,100987.75
